sensor_id;sensor_type;location;lat;lon;timestamp;temperature;humidity
18207;DHT22;9229;52.354;20.886;2023-04-06T00:05:02;2.20;84.70
18207;DHT22;9229;52.354;20.886;2023-04-06T00:10:10;2.20;85.30
18207;DHT22;9229;52.354;20.886;2023-04-06T00:21:25;2.10;86.40
18207;DHT22;9229;52.354;20.886;2023-04-06T00:32:13;2.10;87.80
18207;DHT22;9229;52.354;20.886;2023-04-06T00:37:20;2.00;87.40
18207;DHT22;9229;52.354;20.886;2023-04-06T00:43:03;2.10;87.70
18207;DHT22;9229;52.354;20.886;2023-04-06T00:48:11;2.10;87.00
18207;DHT22;9229;52.354;20.886;2023-04-06T00:53:19;2.10;87.10
18207;DHT22;9229;52.354;20.886;2023-04-06T01:04:31;2.10;88.60
18207;DHT22;9229;52.354;20.886;2023-04-06T01:09:58;2.00;88.10
18207;DHT22;9229;52.354;20.886;2023-04-06T01:15:28;2.00;88.70
18207;DHT22;9229;52.354;20.886;2023-04-06T01:20:34;2.00;88.40
18207;DHT22;9229;52.354;20.886;2023-04-06T01:25:43;2.00;89.20
18207;DHT22;9229;52.354;20.886;2023-04-06T01:30:46;2.00;89.10
18207;DHT22;9229;52.354;20.886;2023-04-06T01:36:09;2.00;89.60
18207;DHT22;9229;52.354;20.886;2023-04-06T01:41:23;1.80;90.00
18207;DHT22;9229;52.354;20.886;2023-04-06T01:46:27;2.00;90.70
18207;DHT22;9229;52.354;20.886;2023-04-06T01:51:46;2.00;91.10
18207;DHT22;9229;52.354;20.886;2023-04-06T02:22:49;1.90;91.10
18207;DHT22;9229;52.354;20.886;2023-04-06T02:28:07;1.90;91.20
18207;DHT22;9229;52.354;20.886;2023-04-06T02:33:19;1.90;91.30
18207;DHT22;9229;52.354;20.886;2023-04-06T02:38:24;1.90;91.60
18207;DHT22;9229;52.354;20.886;2023-04-06T02:43:35;1.90;91.60
18207;DHT22;9229;52.354;20.886;2023-04-06T02:49:06;1.90;91.80
18207;DHT22;9229;52.354;20.886;2023-04-06T02:54:11;1.80;92.20
18207;DHT22;9229;52.354;20.886;2023-04-06T02:59:19;1.80;92.50
18207;DHT22;9229;52.354;20.886;2023-04-06T03:05:11;1.70;92.80
18207;DHT22;9229;52.354;20.886;2023-04-06T03:16:14;1.60;94.00
18207;DHT22;9229;52.354;20.886;2023-04-06T03:21:41;1.50;94.50
18207;DHT22;9229;52.354;20.886;2023-04-06T03:26:57;1.30;95.10
18207;DHT22;9229;52.354;20.886;2023-04-06T03:32:15;1.20;95.80
18207;DHT22;9229;52.354;20.886;2023-04-06T03:43:31;1.10;97.40
18207;DHT22;9229;52.354;20.886;2023-04-06T04:01:10;1.00;99.90
18207;DHT22;9229;52.354;20.886;2023-04-06T04:06:24;0.90;99.90
18207;DHT22;9229;52.354;20.886;2023-04-06T04:11:37;0.90;99.90
18207;DHT22;9229;52.354;20.886;2023-04-06T04:17:09;1.00;99.90
18207;DHT22;9229;52.354;20.886;2023-04-06T04:22:15;1.00;99.90
18207;DHT22;9229;52.354;20.886;2023-04-06T04:27:19;1.00;99.90
18207;DHT22;9229;52.354;20.886;2023-04-06T04:32:29;1.10;99.90
18207;DHT22;9229;52.354;20.886;2023-04-06T04:37:45;1.20;99.90
18207;DHT22;9229;52.354;20.886;2023-04-06T04:43:02;1.20;99.90
18207;DHT22;9229;52.354;20.886;2023-04-06T04:48:12;1.20;99.90
18207;DHT22;9229;52.354;20.886;2023-04-06T04:53:36;1.20;99.90
18207;DHT22;9229;52.354;20.886;2023-04-06T04:58:50;1.20;99.90
18207;DHT22;9229;52.354;20.886;2023-04-06T05:04:08;1.40;99.90
18207;DHT22;9229;52.354;20.886;2023-04-06T05:09:44;1.40;99.90
18207;DHT22;9229;52.354;20.886;2023-04-06T05:15:23;1.80;99.90
18207;DHT22;9229;52.354;20.886;2023-04-06T05:21:36;1.70;99.90
18207;DHT22;9229;52.354;20.886;2023-04-06T05:26:48;1.80;99.90
18207;DHT22;9229;52.354;20.886;2023-04-06T05:32:07;2.00;99.90
18207;DHT22;9229;52.354;20.886;2023-04-06T05:49:47;2.40;99.90
18207;DHT22;9229;52.354;20.886;2023-04-06T05:55:09;2.60;99.90
18207;DHT22;9229;52.354;20.886;2023-04-06T06:00:20;2.90;99.90
18207;DHT22;9229;52.354;20.886;2023-04-06T06:05:39;3.40;99.90
18207;DHT22;9229;52.354;20.886;2023-04-06T06:10:47;3.90;99.50
18207;DHT22;9229;52.354;20.886;2023-04-06T06:15:55;4.10;97.70
18207;DHT22;9229;52.354;20.886;2023-04-06T06:21:01;4.10;97.00
18207;DHT22;9229;52.354;20.886;2023-04-06T06:26:08;4.10;96.20
18207;DHT22;9229;52.354;20.886;2023-04-06T06:31:13;4.20;96.50
18207;DHT22;9229;52.354;20.886;2023-04-06T06:36:25;4.50;96.30
18207;DHT22;9229;52.354;20.886;2023-04-06T06:41:37;4.80;95.40
18207;DHT22;9229;52.354;20.886;2023-04-06T06:46:47;4.90;93.60
18207;DHT22;9229;52.354;20.886;2023-04-06T06:57:36;5.10;92.20
18207;DHT22;9229;52.354;20.886;2023-04-06T07:02:40;5.40;91.90
18207;DHT22;9229;52.354;20.886;2023-04-06T07:07:42;5.50;90.70
18207;DHT22;9229;52.354;20.886;2023-04-06T07:12:46;5.60;90.90
18207;DHT22;9229;52.354;20.886;2023-04-06T07:17:48;5.80;90.10
18207;DHT22;9229;52.354;20.886;2023-04-06T07:22:51;6.00;89.80
18207;DHT22;9229;52.354;20.886;2023-04-06T07:27:54;6.10;88.70
18207;DHT22;9229;52.354;20.886;2023-04-06T07:33:00;6.60;87.70
18207;DHT22;9229;52.354;20.886;2023-04-06T07:38:03;7.10;85.40
18207;DHT22;9229;52.354;20.886;2023-04-06T07:48:40;7.30;82.30
18207;DHT22;9229;52.354;20.886;2023-04-06T07:53:43;7.00;82.00
18207;DHT22;9229;52.354;20.886;2023-04-06T07:58:53;6.90;82.50
18207;DHT22;9229;52.354;20.886;2023-04-06T08:03:57;7.10;81.90
18207;DHT22;9229;52.354;20.886;2023-04-06T08:09:01;7.30;81.60
18207;DHT22;9229;52.354;20.886;2023-04-06T08:14:05;7.30;80.90
18207;DHT22;9229;52.354;20.886;2023-04-06T08:19:07;7.30;81.00
18207;DHT22;9229;52.354;20.886;2023-04-06T08:24:09;7.50;80.30
18207;DHT22;9229;52.354;20.886;2023-04-06T08:29:14;7.60;80.90
18207;DHT22;9229;52.354;20.886;2023-04-06T08:34:16;7.50;83.60
18207;DHT22;9229;52.354;20.886;2023-04-06T08:39:19;7.30;84.10
18207;DHT22;9229;52.354;20.886;2023-04-06T08:44:29;7.10;84.30
18207;DHT22;9229;52.354;20.886;2023-04-06T08:49:32;7.10;85.50
18207;DHT22;9229;52.354;20.886;2023-04-06T08:54:34;7.30;87.20
18207;DHT22;9229;52.354;20.886;2023-04-06T08:59:38;7.50;87.80
18207;DHT22;9229;52.354;20.886;2023-04-06T09:04:41;7.30;88.20
18207;DHT22;9229;52.354;20.886;2023-04-06T09:09:43;7.20;88.30
18207;DHT22;9229;52.354;20.886;2023-04-06T09:14:55;6.80;90.40
18207;DHT22;9229;52.354;20.886;2023-04-06T09:20:03;6.60;90.10
18207;DHT22;9229;52.354;20.886;2023-04-06T09:25:09;6.50;90.70
18207;DHT22;9229;52.354;20.886;2023-04-06T09:30:14;6.60;90.90
18207;DHT22;9229;52.354;20.886;2023-04-06T09:35:26;6.70;91.10
18207;DHT22;9229;52.354;20.886;2023-04-06T09:40:48;6.50;90.50
18207;DHT22;9229;52.354;20.886;2023-04-06T09:45:55;6.30;91.00
18207;DHT22;9229;52.354;20.886;2023-04-06T09:51:03;6.10;91.10
18207;DHT22;9229;52.354;20.886;2023-04-06T09:56:23;5.80;92.30
18207;DHT22;9229;52.354;20.886;2023-04-06T10:01:30;5.50;93.00
18207;DHT22;9229;52.354;20.886;2023-04-06T10:06:34;5.30;94.30
18207;DHT22;9229;52.354;20.886;2023-04-06T10:11:37;5.50;95.40
18207;DHT22;9229;52.354;20.886;2023-04-06T10:16:41;5.40;94.90
18207;DHT22;9229;52.354;20.886;2023-04-06T10:21:44;5.30;95.40
18207;DHT22;9229;52.354;20.886;2023-04-06T10:26:57;5.30;96.00
18207;DHT22;9229;52.354;20.886;2023-04-06T10:32:00;5.50;96.10
18207;DHT22;9229;52.354;20.886;2023-04-06T10:37:13;5.90;95.60
18207;DHT22;9229;52.354;20.886;2023-04-06T10:42:16;5.70;95.10
18207;DHT22;9229;52.354;20.886;2023-04-06T10:47:22;5.40;96.40
18207;DHT22;9229;52.354;20.886;2023-04-06T10:52:24;5.20;97.20
18207;DHT22;9229;52.354;20.886;2023-04-06T10:57:28;4.90;98.10
18207;DHT22;9229;52.354;20.886;2023-04-06T11:02:32;4.50;99.40
18207;DHT22;9229;52.354;20.886;2023-04-06T11:07:34;4.30;99.90
18207;DHT22;9229;52.354;20.886;2023-04-06T11:12:38;4.40;99.90
18207;DHT22;9229;52.354;20.886;2023-04-06T11:17:47;4.40;99.90
18207;DHT22;9229;52.354;20.886;2023-04-06T11:22:51;4.40;99.90
18207;DHT22;9229;52.354;20.886;2023-04-06T11:27:56;4.30;99.90
18207;DHT22;9229;52.354;20.886;2023-04-06T11:33:03;4.20;99.90
18207;DHT22;9229;52.354;20.886;2023-04-06T11:38:07;4.30;99.90
18207;DHT22;9229;52.354;20.886;2023-04-06T11:43:14;4.50;99.90
18207;DHT22;9229;52.354;20.886;2023-04-06T11:53:50;4.70;99.90
18207;DHT22;9229;52.354;20.886;2023-04-06T11:58:54;4.80;99.90
18207;DHT22;9229;52.354;20.886;2023-04-06T12:04:05;4.80;99.90
18207;DHT22;9229;52.354;20.886;2023-04-06T12:09:24;4.90;99.90
18207;DHT22;9229;52.354;20.886;2023-04-06T12:14:38;4.80;99.90
18207;DHT22;9229;52.354;20.886;2023-04-06T12:19:43;4.90;99.90
18207;DHT22;9229;52.354;20.886;2023-04-06T12:24:45;4.90;99.90
18207;DHT22;9229;52.354;20.886;2023-04-06T12:29:48;4.90;99.90
18207;DHT22;9229;52.354;20.886;2023-04-06T12:35:00;4.90;99.90
18207;DHT22;9229;52.354;20.886;2023-04-06T12:40:22;4.90;99.90
18207;DHT22;9229;52.354;20.886;2023-04-06T12:51:48;4.80;99.90
18207;DHT22;9229;52.354;20.886;2023-04-06T12:57:03;4.80;99.90
18207;DHT22;9229;52.354;20.886;2023-04-06T13:02:17;4.70;99.90
18207;DHT22;9229;52.354;20.886;2023-04-06T13:13:16;4.60;99.90
18207;DHT22;9229;52.354;20.886;2023-04-06T13:18:21;4.60;99.90
18207;DHT22;9229;52.354;20.886;2023-04-06T13:23:41;4.60;99.90
18207;DHT22;9229;52.354;20.886;2023-04-06T13:28:59;4.70;99.90
18207;DHT22;9229;52.354;20.886;2023-04-06T13:34:03;4.70;99.90
18207;DHT22;9229;52.354;20.886;2023-04-06T13:39:12;4.70;99.90
18207;DHT22;9229;52.354;20.886;2023-04-06T13:44:16;4.70;99.90
18207;DHT22;9229;52.354;20.886;2023-04-06T13:49:20;4.70;99.90
18207;DHT22;9229;52.354;20.886;2023-04-06T13:54:25;4.70;99.90
18207;DHT22;9229;52.354;20.886;2023-04-06T13:59:36;4.70;99.90
18207;DHT22;9229;52.354;20.886;2023-04-06T14:04:46;4.70;99.90
18207;DHT22;9229;52.354;20.886;2023-04-06T14:09:49;4.80;99.90
18207;DHT22;9229;52.354;20.886;2023-04-06T14:15:01;4.60;99.90
18207;DHT22;9229;52.354;20.886;2023-04-06T14:20:04;4.60;99.90
18207;DHT22;9229;52.354;20.886;2023-04-06T14:25:10;4.60;99.90
18207;DHT22;9229;52.354;20.886;2023-04-06T14:30:19;4.40;99.90
18207;DHT22;9229;52.354;20.886;2023-04-06T14:35:33;4.40;99.90
18207;DHT22;9229;52.354;20.886;2023-04-06T14:40:35;4.40;99.90
18207;DHT22;9229;52.354;20.886;2023-04-06T14:45:39;4.40;99.90
18207;DHT22;9229;52.354;20.886;2023-04-06T14:50:41;4.40;99.90
18207;DHT22;9229;52.354;20.886;2023-04-06T14:55:47;4.30;99.90
18207;DHT22;9229;52.354;20.886;2023-04-06T15:00:57;4.30;99.90
18207;DHT22;9229;52.354;20.886;2023-04-06T15:05:59;4.30;99.90
18207;DHT22;9229;52.354;20.886;2023-04-06T15:11:01;4.40;99.90
18207;DHT22;9229;52.354;20.886;2023-04-06T15:16:06;4.40;99.90
18207;DHT22;9229;52.354;20.886;2023-04-06T15:21:28;4.30;99.90
18207;DHT22;9229;52.354;20.886;2023-04-06T15:26:38;4.30;99.90
18207;DHT22;9229;52.354;20.886;2023-04-06T15:31:56;4.40;99.90
18207;DHT22;9229;52.354;20.886;2023-04-06T15:37:11;4.40;99.90
18207;DHT22;9229;52.354;20.886;2023-04-06T15:42:15;4.40;99.90
18207;DHT22;9229;52.354;20.886;2023-04-06T15:47:30;4.40;99.90
18207;DHT22;9229;52.354;20.886;2023-04-06T15:53:18;4.40;99.90
18207;DHT22;9229;52.354;20.886;2023-04-06T15:58:29;4.30;99.90
18207;DHT22;9229;52.354;20.886;2023-04-06T16:03:37;4.20;99.90
18207;DHT22;9229;52.354;20.886;2023-04-06T16:08:50;4.20;99.90
18207;DHT22;9229;52.354;20.886;2023-04-06T16:14:08;4.10;99.90
18207;DHT22;9229;52.354;20.886;2023-04-06T16:19:17;4.00;99.90
18207;DHT22;9229;52.354;20.886;2023-04-06T16:24:24;3.90;99.90
18207;DHT22;9229;52.354;20.886;2023-04-06T16:29:27;3.80;99.90
18207;DHT22;9229;52.354;20.886;2023-04-06T16:34:33;3.90;99.90
18207;DHT22;9229;52.354;20.886;2023-04-06T16:39:35;3.90;99.90
18207;DHT22;9229;52.354;20.886;2023-04-06T16:44:39;3.90;99.90
18207;DHT22;9229;52.354;20.886;2023-04-06T16:49:43;3.80;99.90
18207;DHT22;9229;52.354;20.886;2023-04-06T16:54:45;3.80;99.90
18207;DHT22;9229;52.354;20.886;2023-04-06T16:59:47;3.80;99.90
18207;DHT22;9229;52.354;20.886;2023-04-06T17:04:51;3.80;99.90
18207;DHT22;9229;52.354;20.886;2023-04-06T17:10:05;3.90;99.90
18207;DHT22;9229;52.354;20.886;2023-04-06T17:15:27;3.80;99.90
18207;DHT22;9229;52.354;20.886;2023-04-06T17:21:05;3.80;99.90
18207;DHT22;9229;52.354;20.886;2023-04-06T17:26:17;3.80;99.90
18207;DHT22;9229;52.354;20.886;2023-04-06T17:31:24;3.80;99.90
18207;DHT22;9229;52.354;20.886;2023-04-06T17:36:28;3.80;99.90
18207;DHT22;9229;52.354;20.886;2023-04-06T17:41:35;3.90;99.90
18207;DHT22;9229;52.354;20.886;2023-04-06T17:47:12;3.90;99.90
18207;DHT22;9229;52.354;20.886;2023-04-06T18:05:31;3.70;99.90
18207;DHT22;9229;52.354;20.886;2023-04-06T18:10:46;3.70;99.90
18207;DHT22;9229;52.354;20.886;2023-04-06T18:15:48;3.80;99.90
18207;DHT22;9229;52.354;20.886;2023-04-06T18:20:54;3.80;99.90
18207;DHT22;9229;52.354;20.886;2023-04-06T18:26:13;3.80;99.90
18207;DHT22;9229;52.354;20.886;2023-04-06T18:31:23;3.80;99.90
18207;DHT22;9229;52.354;20.886;2023-04-06T18:36:41;3.80;99.90
18207;DHT22;9229;52.354;20.886;2023-04-06T18:41:45;3.80;99.90
18207;DHT22;9229;52.354;20.886;2023-04-06T18:47:22;3.80;99.90
18207;DHT22;9229;52.354;20.886;2023-04-06T18:53:08;4.00;99.90
18207;DHT22;9229;52.354;20.886;2023-04-06T18:58:44;3.80;99.90
18207;DHT22;9229;52.354;20.886;2023-04-06T19:03:56;3.80;99.90
18207;DHT22;9229;52.354;20.886;2023-04-06T19:09:02;3.80;99.90
